Time;durP1;ratioP1;P1;durP2;ratioP2;P2;SDS_P1;SDS_P2;PMS_P1;PMS_P2;Temp;Humidity;BMP_temperature;BMP_pressure;BME280_temperature;BME280_humidity;BME280_pressure;Samples;Min_cycle;Max_cycle;Signal;HPM_P1;HPM_P2
2024/04/05 00:01:08;;;;;;;;;;;;;;;17.61;47.53;99231.22;10407261;28;984;-71
2024/04/05 00:06:04;;;;;;;;;;;;;;;17.60;47.57;99240.03;10407724;28;895;-71
2024/04/05 00:11:00;;;;;;;;;;;;;;;17.60;47.75;99237.41;10406974;28;1953;-71
2024/04/05 00:15:56;;;;;;;;;;;;;;;17.57;47.67;99241.06;10407514;28;857;-71
2024/04/05 00:20:52;;;;;;;;;;;;;;;17.56;47.75;99239.34;10406878;28;861;-71
2024/04/05 00:25:47;;;;;;;;;;;;;;;17.53;47.78;99235.09;10406523;28;1315;-71
2024/04/05 00:30:43;;;;;;;;;;;;;;;17.53;47.67;99227.19;10407236;28;1906;-71
2024/04/05 00:35:39;;;;;;;;;;;;;;;17.52;47.76;99219.34;10406574;28;937;-71
2024/04/05 00:40:35;;;;;;;;;;;;;;;17.50;47.71;99214.19;10406505;28;826;-71
2024/04/05 00:45:31;;;;;;;;;;;;;;;17.50;47.59;99223.84;10406427;28;834;-71
2024/04/05 00:50:30;;;;;;;;;;;;;;;17.48;47.85;99207.28;10412603;28;1947;-71
2024/04/05 00:55:26;;;;;;;;;;;;;;;17.48;47.85;99204.63;10414352;28;830;-71
2024/04/05 01:00:24;;;;;;;;;;;;;;;17.46;47.77;99198.59;10413449;28;768;-71
2024/04/05 01:05:19;;;;;;;;;;;;;;;17.44;47.63;99198.66;10413770;27;870;-71
2024/04/05 01:10:15;;;;;;;;;;;;;;;17.44;47.76;99200.44;10412913;27;1897;-71
2024/04/05 01:15:11;;;;;;;;;;;;;;;17.42;47.76;99191.75;10412898;28;837;-71
2024/04/05 01:20:07;;;;;;;;;;;;;;;17.43;47.69;99196.13;10412733;28;937;-71
2024/04/05 01:25:03;;;;;;;;;;;;;;;17.41;47.65;99196.19;10412325;28;1313;-71
2024/04/05 01:29:59;;;;;;;;;;;;;;;17.40;47.65;99191.84;10412156;27;1914;-71
2024/04/05 01:34:55;;;;;;;;;;;;;;;17.39;47.62;99184.84;10412396;28;917;-71
2024/04/05 01:39:50;;;;;;;;;;;;;;;17.38;47.71;99183.16;10412456;28;923;-71
2024/04/05 01:44:46;;;;;;;;;;;;;;;17.37;47.79;99184.09;10411675;28;1008;-71
2024/04/05 01:49:42;;;;;;;;;;;;;;;17.36;47.81;99178.91;10411117;28;1287;-71
2024/04/05 01:54:38;;;;;;;;;;;;;;;17.35;47.70;99171.94;10411756;28;1951;-71
2024/04/05 01:59:34;;;;;;;;;;;;;;;17.34;47.67;99173.69;10411424;28;905;-71
2024/04/05 02:04:30;;;;;;;;;;;;;;;17.33;47.75;99177.28;10409542;28;979;-71
2024/04/05 02:09:26;;;;;;;;;;;;;;;17.31;47.74;99164.16;10411234;28;925;-71
2024/04/05 02:14:21;;;;;;;;;;;;;;;17.32;47.90;99165.06;10410404;27;1917;-71
2024/04/05 02:19:17;;;;;;;;;;;;;;;17.30;47.93;99165.13;10410219;28;775;-71
2024/04/05 02:24:13;;;;;;;;;;;;;;;17.29;47.90;99179.22;10410014;28;1124;-71
2024/04/05 02:29:09;;;;;;;;;;;;;;;17.28;47.79;99190.66;10409798;27;921;-71
2024/04/05 02:34:05;;;;;;;;;;;;;;;17.28;47.90;99189.81;10409677;28;1973;-71
2024/04/05 02:39:02;;;;;;;;;;;;;;;17.26;47.92;99196.94;10409406;27;896;-71
2024/04/05 02:43:58;;;;;;;;;;;;;;;17.26;48.20;99191.69;10409864;28;819;-71
2024/04/05 02:48:54;;;;;;;;;;;;;;;17.25;48.15;99192.63;10409211;27;952;-71
2024/04/05 02:53:50;;;;;;;;;;;;;;;17.24;47.88;99186.50;10409294;28;1894;-71
2024/04/05 02:58:46;;;;;;;;;;;;;;;17.22;48.06;99175.19;10409388;28;818;-71
2024/04/05 03:03:42;;;;;;;;;;;;;;;17.21;47.98;99178.75;10408621;28;790;-71
2024/04/05 03:08:37;;;;;;;;;;;;;;;17.20;47.81;99179.66;10408958;28;822;-71
2024/04/05 03:13:33;;;;;;;;;;;;;;;17.19;47.86;99185.88;10408220;28;1898;-71
2024/04/05 03:18:29;;;;;;;;;;;;;;;17.19;47.91;99185.03;10408888;28;818;-71
2024/04/05 03:23:25;;;;;;;;;;;;;;;17.18;47.86;99184.16;10407440;28;973;-71
2024/04/05 03:28:21;;;;;;;;;;;;;;;17.16;47.80;99183.41;10407942;28;1214;-71
2024/04/05 03:33:17;;;;;;;;;;;;;;;17.17;48.20;99213.22;10407872;28;1967;-71
2024/04/05 03:38:13;;;;;;;;;;;;;;;17.17;47.84;99223.75;10407721;28;805;-71
2024/04/05 03:43:09;;;;;;;;;;;;;;;17.15;47.88;99229.06;10408165;28;814;-71
2024/04/05 03:48:05;;;;;;;;;;;;;;;17.15;47.95;99217.69;10406916;28;1393;-71
2024/04/05 03:53:01;;;;;;;;;;;;;;;17.14;48.03;99216.00;10407409;28;1902;-71
2024/04/05 03:57:57;;;;;;;;;;;;;;;17.13;48.07;99207.22;10407944;28;862;-71
2024/04/05 04:02:53;;;;;;;;;;;;;;;17.13;48.11;99223.03;10407252;28;810;-71
2024/04/05 04:07:49;;;;;;;;;;;;;;;17.13;47.89;99209.84;10407152;28;865;-71
2024/04/05 04:12:45;;;;;;;;;;;;;;;17.13;47.88;99212.50;10407546;28;1953;-71
2024/04/05 04:17:40;;;;;;;;;;;;;;;17.15;48.03;99205.38;10406875;28;875;-71
2024/04/05 04:22:38;;;;;;;;;;;;;;;17.16;47.98;99215.00;10411994;28;823;-71
2024/04/05 04:27:34;;;;;;;;;;;;;;;17.19;47.89;99220.13;10415110;27;1167;-71
2024/04/05 04:32:29;;;;;;;;;;;;;;;17.21;47.99;99223.53;10414477;28;1971;-71
2024/04/05 04:37:25;;;;;;;;;;;;;;;17.23;48.09;99205.00;10414958;28;872;-71
2024/04/05 04:42:21;;;;;;;;;;;;;;;17.27;47.98;99219.75;10414935;28;855;-71
2024/04/05 04:47:17;;;;;;;;;;;;;;;17.29;48.14;99218.72;10414166;28;885;-71
2024/04/05 04:52:13;;;;;;;;;;;;;;;17.32;48.13;99223.00;10413806;27;1870;-71
2024/04/05 04:57:09;;;;;;;;;;;;;;;17.36;48.01;99227.16;10414216;28;937;-71
2024/04/05 05:02:05;;;;;;;;;;;;;;;17.38;48.03;99221.84;10413370;28;876;-71
2024/04/05 05:07:01;;;;;;;;;;;;;;;17.40;47.99;99209.44;10414113;28;869;-71
2024/04/05 05:11:57;;;;;;;;;;;;;;;17.42;47.97;99213.72;10413874;28;1964;-71
2024/04/05 05:16:53;;;;;;;;;;;;;;;17.45;48.04;99212.72;10414126;28;900;-71
2024/04/05 05:21:49;;;;;;;;;;;;;;;17.46;47.98;99217.03;10412073;28;1051;-71
2024/04/05 05:26:44;;;;;;;;;;;;;;;17.50;47.93;99210.66;10413851;28;1454;-71
2024/04/05 05:31:40;;;;;;;;;;;;;;;17.51;48.17;99217.66;10411703;28;1969;-73
2024/04/05 05:36:36;;;;;;;;;;;;;;;17.53;47.99;99215.81;10412711;28;823;-71
2024/04/05 05:41:32;;;;;;;;;;;;;;;17.55;48.09;99202.53;10411824;28;889;-72
2024/04/05 05:46:28;;;;;;;;;;;;;;;17.58;48.07;99197.97;10411029;28;944;-71
2024/04/05 05:51:24;;;;;;;;;;;;;;;17.59;48.18;99204.94;10411539;28;1897;-72
2024/04/05 05:56:20;;;;;;;;;;;;;;;17.61;48.17;99181.16;10411175;28;784;-71
2024/04/05 06:01:15;;;;;;;;;;;;;;;17.62;47.94;99177.56;10410421;28;960;-72
2024/04/05 06:06:11;;;;;;;;;;;;;;;17.64;47.92;99141.47;10411480;28;869;-71
2024/04/05 06:11:08;;;;;;;;;;;;;;;17.63;48.09;99155.56;10411104;28;1972;-71
2024/04/05 06:16:05;;;;;;;;;;;;;;;17.64;47.99;99138.81;10410305;28;1007;-71
2024/04/05 06:21:01;;;;;;;;;;;;;;;17.63;48.23;99137.97;10410191;28;863;-71
2024/04/05 06:25:57;;;;;;;;;;;;;;;17.64;48.13;99181.84;10410229;28;1276;-74
2024/04/05 06:30:53;;;;;;;;;;;;;;;17.64;48.23;99168.66;10409749;28;1913;-71
2024/04/05 06:35:49;;;;;;;;;;;;;;;17.66;48.38;99160.69;10410268;28;909;-71
2024/04/05 06:40:45;;;;;;;;;;;;;;;17.66;48.30;99158.91;10409512;28;924;-78
2024/04/05 06:45:41;;;;;;;;;;;;;;;17.68;48.18;99164.94;10409255;28;846;-72
2024/04/05 06:50:37;;;;;;;;;;;;;;;17.69;48.33;99157.88;10409984;28;1909;-72
2024/04/05 06:55:32;;;;;;;;;;;;;;;17.70;48.35;99168.34;10408951;28;917;-72
2024/04/05 07:00:28;;;;;;;;;;;;;;;17.71;48.48;99156.00;10409399;28;757;-71
2024/04/05 07:05:24;;;;;;;;;;;;;;;17.73;48.41;99159.41;10408612;28;774;-71
2024/04/05 07:10:20;;;;;;;;;;;;;;;17.74;48.39;99155.88;10408422;28;1893;-71
2024/04/05 07:15:16;;;;;;;;;;;;;;;17.75;48.45;99150.50;10408948;28;802;-71
2024/04/05 07:20:12;;;;;;;;;;;;;;;17.75;48.55;99139.09;10408185;28;842;-71
2024/04/05 07:25:08;;;;;;;;;;;;;;;17.77;48.57;99124.06;10408688;28;1166;-70
2024/04/05 07:30:04;;;;;;;;;;;;;;;17.80;48.48;99107.28;10408361;28;1985;-70
2024/04/05 07:35:00;;;;;;;;;;;;;;;17.80;48.47;99100.22;10408362;28;958;-70
2024/04/05 07:39:56;;;;;;;;;;;;;;;17.81;48.47;99093.97;10407723;28;862;-70
2024/04/05 07:44:53;;;;;;;;;;;;;;;17.83;48.29;99080.75;10407630;28;793;-70
2024/04/05 07:49:49;;;;;;;;;;;;;;;17.84;48.26;99069.25;10408147;28;918;-71
2024/04/05 07:54:45;;;;;;;;;;;;;;;17.85;48.11;99082.34;10406774;28;1898;-70
2024/04/05 07:59:41;;;;;;;;;;;;;;;17.85;48.13;99066.53;10415754;28;921;-70
2024/04/05 08:04:37;;;;;;;;;;;;;;;17.87;48.10;99074.38;10415667;28;842;-71
2024/04/05 08:09:33;;;;;;;;;;;;;;;17.87;48.22;99067.31;10415519;28;876;-71
2024/04/05 08:14:29;;;;;;;;;;;;;;;17.90;48.31;99059.22;10415822;28;1951;-70
2024/04/05 08:19:25;;;;;;;;;;;;;;;17.92;48.41;99067.03;10415084;28;906;-70
2024/04/05 08:24:21;;;;;;;;;;;;;;;17.93;48.21;99066.97;10415861;28;1006;-70
2024/04/05 08:29:17;;;;;;;;;;;;;;;17.93;48.25;99077.50;10414344;28;581;-70
2024/04/05 08:34:13;;;;;;;;;;;;;;;17.95;48.20;99085.34;10414494;28;1973;-70
2024/04/05 08:39:09;;;;;;;;;;;;;;;17.95;48.11;99069.53;10414205;28;887;-71
2024/04/05 08:44:05;;;;;;;;;;;;;;;17.96;48.20;99071.22;10414051;28;869;-71
2024/04/05 08:49:01;;;;;;;;;;;;;;;17.98;48.14;99053.53;10413995;28;861;-71
2024/04/05 08:53:57;;;;;;;;;;;;;;;17.99;48.31;99065.78;10413659;28;1954;-71
2024/04/05 08:58:53;;;;;;;;;;;;;;;18.01;48.10;99060.44;10413510;28;881;-71
2024/04/05 09:03:49;;;;;;;;;;;;;;;18.00;48.39;99051.69;10413989;27;964;-71
2024/04/05 09:08:46;;;;;;;;;;;;;;;18.01;48.14;99037.53;10413037;28;798;-70
2024/04/05 09:13:42;;;;;;;;;;;;;;;18.02;48.18;99041.88;10413432;28;1964;-70
2024/04/05 09:18:37;;;;;;;;;;;;;;;18.03;48.18;99022.50;10412798;28;937;-71
2024/04/05 09:23:33;;;;;;;;;;;;;;;18.04;48.47;99018.91;10412677;28;900;-71
2024/04/05 09:28:29;;;;;;;;;;;;;;;18.03;48.35;99013.75;10412326;27;1447;-73
2024/04/05 09:33:25;;;;;;;;;;;;;;;18.01;48.43;99008.53;10412738;28;1979;-73
2024/04/05 09:38:21;;;;;;;;;;;;;;;18.01;48.10;98994.50;10411896;28;942;-73
2024/04/05 09:43:17;;;;;;;;;;;;;;;18.01;48.31;98979.53;10412539;28;851;-73
2024/04/05 09:48:13;;;;;;;;;;;;;;;18.02;48.17;98969.81;10411639;28;760;-73
2024/04/05 09:53:09;;;;;;;;;;;;;;;18.01;48.31;98947.03;10411389;27;1905;-74
2024/04/05 09:58:05;;;;;;;;;;;;;;;18.01;48.00;98931.22;10411991;28;890;-72
2024/04/05 10:03:01;;;;;;;;;;;;;;;18.02;48.15;98928.47;10411158;28;868;-72
2024/04/05 10:07:57;;;;;;;;;;;;;;;18.04;48.00;98920.50;10411006;28;831;-69
2024/04/05 10:12:52;;;;;;;;;;;;;;;18.06;48.17;98913.34;10410575;28;1975;-70
2024/04/05 10:17:48;;;;;;;;;;;;;;;18.05;48.19;98924.81;10410834;28;842;-70
2024/04/05 10:22:46;;;;;;;;;;;;;;;18.08;48.26;98922.03;10409687;28;1008;-69
2024/04/05 10:27:42;;;;;;;;;;;;;;;18.08;48.42;98928.16;10410358;27;1293;-70
2024/04/05 10:32:37;;;;;;;;;;;;;;;18.09;48.23;98924.56;10409824;28;1909;-73
2024/04/05 10:37:34;;;;;;;;;;;;;;;18.07;48.23;98929.06;10409770;28;1083;-73
2024/04/05 10:42:30;;;;;;;;;;;;;;;18.05;48.34;98920.41;10410313;28;860;-73
2024/04/05 10:47:30;;;;;;;;;;;;;;;18.05;48.39;98944.16;10410048;28;877;-73
2024/04/05 10:52:26;;;;;;;;;;;;;;;18.06;48.31;98927.38;10409570;28;1910;-73
2024/04/05 10:57:22;;;;;;;;;;;;;;;18.05;48.20;98904.59;10408949;28;860;-74
2024/04/05 11:02:18;;;;;;;;;;;;;;;18.05;48.26;98890.53;10408736;28;810;-77
2024/04/05 11:07:14;;;;;;;;;;;;;;;18.05;48.38;98919.53;10409028;28;877;-74
2024/04/05 11:12:09;;;;;;;;;;;;;;;18.06;48.00;98945.00;10408278;28;1918;-73
2024/04/05 11:17:05;;;;;;;;;;;;;;;18.05;48.34;98975.81;10408242;28;1435;-72
2024/04/05 11:22:01;;;;;;;;;;;;;;;18.04;48.12;98979.34;10408783;28;912;-73
2024/04/05 11:26:57;;;;;;;;;;;;;;;18.02;48.26;98954.84;10408857;28;1391;-73
2024/04/05 11:31:53;;;;;;;;;;;;;;;18.02;48.20;98965.41;10407194;28;1905;-73
2024/04/05 11:36:49;;;;;;;;;;;;;;;18.02;48.14;98975.94;10407747;28;1004;-73
2024/04/05 11:41:45;;;;;;;;;;;;;;;18.02;48.22;98951.38;10408243;28;833;-74
2024/04/05 11:46:41;;;;;;;;;;;;;;;18.03;48.07;98945.19;10407637;28;866;-73
2024/04/05 11:51:37;;;;;;;;;;;;;;;18.06;48.09;98924.75;10408083;28;1893;-76
2024/04/05 11:56:33;;;;;;;;;;;;;;;18.07;48.19;98944.91;10407434;28;869;-81
2024/04/05 12:01:29;;;;;;;;;;;;;;;18.06;48.13;98948.47;10407662;28;856;-79
2024/04/05 12:06:25;;;;;;;;;;;;;;;18.06;48.03;98942.38;10407859;28;882;-75
2024/04/05 12:11:21;;;;;;;;;;;;;;;18.05;48.25;98949.44;10407218;28;1960;-75
2024/04/05 12:16:17;;;;;;;;;;;;;;;18.05;48.05;98967.88;10407034;28;875;-75
2024/04/05 12:21:13;;;;;;;;;;;;;;;18.07;48.05;98979.19;10407527;28;901;-75
2024/04/05 12:26:09;;;;;;;;;;;;;;;18.10;48.16;98979.03;10407754;28;1092;-74
2024/04/05 12:31:07;;;;;;;;;;;;;;;18.11;48.06;98995.69;10407133;28;1983;-75
2024/04/05 12:36:06;;;;;;;;;;;;;;;18.10;48.21;98981.66;10407240;28;810;-75
2024/04/05 12:41:02;;;;;;;;;;;;;;;18.10;48.13;99001.88;10406845;28;869;-75
2024/04/05 12:45:58;;;;;;;;;;;;;;;18.08;48.22;98994.09;10414078;28;822;-74
2024/04/05 12:50:54;;;;;;;;;;;;;;;18.11;48.22;99003.59;10414425;28;1971;-73
2024/04/05 12:55:50;;;;;;;;;;;;;;;18.12;48.12;99013.22;10414333;27;806;-76
2024/04/05 13:00:46;;;;;;;;;;;;;;;18.10;48.41;98993.97;10412748;28;997;-75
2024/04/05 13:05:42;;;;;;;;;;;;;;;18.09;48.33;99008.09;10413085;28;806;-75
2024/04/05 13:10:38;;;;;;;;;;;;;;;18.10;48.37;99012.44;10412867;28;1893;-75
2024/04/05 13:15:34;;;;;;;;;;;;;;;18.09;48.36;99024.78;10411658;28;1108;-75
2024/04/05 13:20:30;;;;;;;;;;;;;;;18.12;48.31;99039.56;10411291;28;857;-74
2024/04/05 13:25:27;;;;;;;;;;;;;;;18.10;48.25;99042.31;10411811;28;1248;-74
2024/04/05 13:30:24;;;;;;;;;;;;;;;18.10;48.57;99004.53;10411946;28;1914;-74
2024/04/05 13:35:20;;;;;;;;;;;;;;;18.10;48.35;99015.06;10411689;28;897;-75
2024/04/05 13:40:17;;;;;;;;;;;;;;;18.08;48.45;99004.63;10411703;28;779;-74
2024/04/05 13:45:12;;;;;;;;;;;;;;;18.08;48.37;99016.97;10412589;28;964;-74
2024/04/05 13:50:09;;;;;;;;;;;;;;;18.07;48.41;99015.25;10411920;28;886;-74
2024/04/05 13:55:05;;;;;;;;;;;;;;;18.06;48.47;99009.13;10410612;28;1890;-75
2024/04/05 14:00:01;;;;;;;;;;;;;;;18.04;48.45;99004.88;10410936;28;877;-75
2024/04/05 14:05:00;;;;;;;;;;;;;;;18.02;48.55;99001.47;10411613;27;810;-75
2024/04/05 14:09:55;;;;;;;;;;;;;;;18.01;48.37;98991.88;10411449;28;857;-75
2024/04/05 14:14:51;;;;;;;;;;;;;;;17.99;48.53;98980.56;10410880;28;1897;-75
2024/04/05 14:19:48;;;;;;;;;;;;;;;17.97;48.58;98983.25;10411111;28;926;-75
2024/04/05 14:24:46;;;;;;;;;;;;;;;17.96;48.48;98984.22;10409690;28;1515;-75
2024/04/05 14:29:42;;;;;;;;;;;;;;;17.94;48.60;98991.34;10410603;28;777;-75
2024/04/05 14:34:38;;;;;;;;;;;;;;;17.94;48.62;98994.00;10410612;28;1914;-75
2024/04/05 14:39:34;;;;;;;;;;;;;;;17.92;48.63;98982.66;10410305;28;907;-74
2024/04/05 14:44:31;;;;;;;;;;;;;;;17.93;48.55;98973.84;10409434;28;863;-74
2024/04/05 14:49:27;;;;;;;;;;;;;;;17.91;48.76;99002.91;10410121;28;857;-74
2024/04/05 14:54:23;;;;;;;;;;;;;;;17.91;48.71;99009.97;10409051;28;1964;-74
2024/04/05 14:59:19;;;;;;;;;;;;;;;17.90;48.78;99016.19;10409998;28;882;-75
2024/04/05 15:04:15;;;;;;;;;;;;;;;17.93;48.76;99018.66;10408213;28;901;-75
2024/04/05 15:09:12;;;;;;;;;;;;;;;17.94;48.66;99037.03;10407803;28;909;-74
2024/04/05 15:14:10;;;;;;;;;;;;;;;17.96;48.80;99027.25;10408739;28;1897;-75
2024/04/05 15:19:07;;;;;;;;;;;;;;;17.99;48.86;99044.69;10407445;28;1136;-75
2024/04/05 15:24:04;;;;;;;;;;;;;;;18.00;48.66;99033.22;10407953;28;843;-75
2024/04/05 15:29:00;;;;;;;;;;;;;;;18.02;48.87;99041.88;10408262;28;893;-75
2024/04/05 15:33:56;;;;;;;;;;;;;;;18.08;48.61;99053.88;10407608;28;1981;-75
2024/04/05 15:38:52;;;;;;;;;;;;;;;18.13;48.67;99052.69;10408147;28;988;-75
2024/04/05 15:43:47;;;;;;;;;;;;;;;18.17;48.65;99051.56;10407448;28;850;-70
2024/04/05 15:48:43;;;;;;;;;;;;;;;18.20;49.09;99060.25;10407908;28;953;-70
2024/04/05 15:53:39;;;;;;;;;;;;;;;18.22;49.38;99068.94;10407403;28;1886;-70
2024/04/05 15:58:35;;;;;;;;;;;;;;;18.20;49.73;99079.56;10407258;28;764;-70
2024/04/05 16:03:31;;;;;;;;;;;;;;;18.22;49.53;99072.44;10406980;28;953;-70
2024/04/05 16:08:27;;;;;;;;;;;;;;;18.24;49.52;99080.25;10407040;28;949;-70
2024/04/05 16:13:23;;;;;;;;;;;;;;;18.26;49.77;99076.59;10406853;28;1902;-70
2024/04/05 16:18:19;;;;;;;;;;;;;;;18.28;49.72;99094.97;10411500;28;811;-70
2024/04/05 16:23:14;;;;;;;;;;;;;;;18.28;49.75;99102.88;10415378;28;952;-70
2024/04/05 16:28:10;;;;;;;;;;;;;;;18.29;49.80;99101.97;10413749;28;1261;-71
2024/04/05 16:33:07;;;;;;;;;;;;;;;18.31;49.77;99107.97;10415007;28;1905;-77
2024/04/05 16:38:03;;;;;;;;;;;;;;;18.32;49.65;99104.44;10414325;28;845;-71
2024/04/05 16:42:59;;;;;;;;;;;;;;;18.34;49.81;99097.28;10414816;28;882;-70
2024/04/05 16:47:55;;;;;;;;;;;;;;;18.34;49.79;99103.41;10413183;28;733;-70
2024/04/05 16:52:51;;;;;;;;;;;;;;;18.34;49.73;99110.47;10413933;28;1889;-71
2024/04/05 16:57:47;;;;;;;;;;;;;;;18.35;49.83;99120.09;10413513;28;875;-72
2024/04/05 17:02:43;;;;;;;;;;;;;;;18.37;50.00;99115.56;10413312;28;891;-71
2024/04/05 17:07:39;;;;;;;;;;;;;;;18.36;49.87;99117.34;10413012;28;862;-71
2024/04/05 17:12:34;;;;;;;;;;;;;;;18.38;49.70;99128.66;10413716;28;1890;-71
2024/04/05 17:17:30;;;;;;;;;;;;;;;18.38;49.77;99133.09;10412136;28;937;-71
2024/04/05 17:22:26;;;;;;;;;;;;;;;18.38;49.81;99136.59;10412541;28;858;-70
2024/04/05 17:27:22;;;;;;;;;;;;;;;18.39;49.70;99132.16;10412325;28;1271;-72
2024/04/05 17:32:18;;;;;;;;;;;;;;;18.41;50.07;99143.47;10412058;28;1902;-72
2024/04/05 17:37:14;;;;;;;;;;;;;;;18.39;49.91;99138.31;10411926;28;909;-70
2024/04/05 17:42:10;;;;;;;;;;;;;;;18.39;49.83;99148.84;10412704;28;776;-72
2024/04/05 17:47:06;;;;;;;;;;;;;;;18.40;49.89;99149.69;10410894;28;873;-71
2024/04/05 17:52:04;;;;;;;;;;;;;;;18.40;49.77;99157.63;10410754;27;1886;-71
2024/04/05 17:57:00;;;;;;;;;;;;;;;18.41;49.71;99161.94;10411786;28;783;-71
2024/04/05 18:01:56;;;;;;;;;;;;;;;18.41;49.67;99161.94;10411584;28;827;-70
2024/04/05 18:06:52;;;;;;;;;;;;;;;18.41;49.82;99167.22;10410764;28;925;-71
2024/04/05 18:11:48;;;;;;;;;;;;;;;18.41;49.86;99180.41;10409231;28;1955;-71
2024/04/05 18:16:44;;;;;;;;;;;;;;;18.40;49.98;99182.22;10410334;28;767;-72
2024/04/05 18:21:40;;;;;;;;;;;;;;;18.42;49.69;99191.81;10410314;28;952;-72
2024/04/05 18:26:36;;;;;;;;;;;;;;;18.42;49.66;99200.63;10409183;28;1088;-71
2024/04/05 18:31:32;;;;;;;;;;;;;;;18.42;49.74;99218.22;10410353;28;1914;-76
2024/04/05 18:36:28;;;;;;;;;;;;;;;18.43;49.60;99227.84;10408996;28;909;-73
2024/04/05 18:41:24;;;;;;;;;;;;;;;18.44;49.69;99234.81;10410628;28;913;-72
2024/04/05 18:46:20;;;;;;;;;;;;;;;18.44;49.53;99245.38;10409146;28;901;-72
2024/04/05 18:51:16;;;;;;;;;;;;;;;18.45;49.95;99255.84;10408971;28;1897;-73
2024/04/05 18:56:16;;;;;;;;;;;;;;;18.45;49.82;99252.38;10408848;28;768;-71
2024/04/05 19:01:12;;;;;;;;;;;;;;;18.45;49.77;99268.22;10409200;28;952;-72
2024/04/05 19:06:09;;;;;;;;;;;;;;;18.46;49.69;99272.53;10408991;27;928;-72
2024/04/05 19:11:04;;;;;;;;;;;;;;;18.46;49.69;99273.38;10408288;28;1897;-72
2024/04/05 19:16:00;;;;;;;;;;;;;;;18.46;49.66;99268.09;10409378;28;980;-71
2024/04/05 19:20:56;;;;;;;;;;;;;;;18.47;49.65;99279.50;10408611;28;798;-72
2024/04/05 19:25:52;;;;;;;;;;;;;;;18.47;49.81;99295.34;10408906;28;1123;-72
2024/04/05 19:30:48;;;;;;;;;;;;;;;18.47;49.57;99293.59;10407168;28;1913;-72
2024/04/05 19:35:44;;;;;;;;;;;;;;;18.47;49.64;99283.03;10408285;28;909;-72
2024/04/05 19:40:40;;;;;;;;;;;;;;;18.49;49.53;99302.25;10406993;28;897;-72
2024/04/05 19:45:36;;;;;;;;;;;;;;;18.48;49.51;99308.47;10408085;28;853;-72
2024/04/05 19:50:31;;;;;;;;;;;;;;;18.48;49.67;99303.19;10406644;28;1890;-73
2024/04/05 19:55:27;;;;;;;;;;;;;;;18.48;49.43;99307.63;10415560;28;790;-73
2024/04/05 20:00:23;;;;;;;;;;;;;;;18.47;49.53;99327.00;10416421;28;850;-72
2024/04/05 20:05:19;;;;;;;;;;;;;;;18.48;49.46;99321.66;10415132;28;1028;-73
2024/04/05 20:10:15;;;;;;;;;;;;;;;18.46;49.59;99326.16;10416190;28;937;-73
2024/04/05 20:15:11;;;;;;;;;;;;;;;18.46;49.43;99328.81;10415260;28;1889;-70
2024/04/05 20:20:07;;;;;;;;;;;;;;;18.46;49.63;99327.94;10415870;28;919;-71
2024/04/05 20:25:03;;;;;;;;;;;;;;;18.46;49.48;99330.59;10414681;28;1225;-71
2024/04/05 20:35:13;;;;;;;;;;;;;;;18.45;49.56;99337.66;10414408;28;1918;-71
2024/04/05 20:40:09;;;;;;;;;;;;;;;18.45;49.63;99342.09;10414492;28;791;-71
2024/04/05 20:45:05;;;;;;;;;;;;;;;18.45;49.50;99344.72;10414920;28;818;-71
2024/04/05 20:50:01;;;;;;;;;;;;;;;18.44;49.38;99341.22;10414111;28;829;-71
2024/04/05 20:54:57;;;;;;;;;;;;;;;18.44;49.58;99341.22;10413859;28;1898;-71
2024/04/05 20:59:53;;;;;;;;;;;;;;;18.43;49.55;99339.53;10414354;28;788;-71
2024/04/05 21:04:48;;;;;;;;;;;;;;;18.43;49.31;99338.69;10411615;28;922;-71
2024/04/05 21:09:45;;;;;;;;;;;;;;;18.41;49.43;99341.38;10413479;28;906;-70
2024/04/05 21:14:41;;;;;;;;;;;;;;;18.42;49.53;99339.59;10413012;27;1959;-71
2024/04/05 21:19:37;;;;;;;;;;;;;;;18.40;49.53;99339.69;10413599;28;841;-71
2024/04/05 21:24:33;;;;;;;;;;;;;;;18.39;49.34;99349.41;10412718;28;1171;-71
2024/04/05 21:29:29;;;;;;;;;;;;;;;18.38;49.38;99344.19;10412684;28;799;-71
2024/04/05 21:34:24;;;;;;;;;;;;;;;18.36;49.52;99351.31;10412415;27;1906;-71
2024/04/05 21:39:20;;;;;;;;;;;;;;;18.36;49.49;99340.75;10412384;28;972;-71
2024/04/05 21:44:16;;;;;;;;;;;;;;;18.34;49.49;99355.84;10412013;28;1039;-71
2024/04/05 21:49:12;;;;;;;;;;;;;;;18.33;49.51;99357.59;10411856;28;805;-71
2024/04/05 21:54:08;;;;;;;;;;;;;;;18.32;49.44;99347.16;10411519;27;1947;-71
2024/04/05 21:59:04;;;;;;;;;;;;;;;18.31;49.59;99348.06;10412886;28;956;-70
2024/04/05 22:04:00;;;;;;;;;;;;;;;18.30;49.58;99354.28;10411358;28;773;-70
2024/04/05 22:08:55;;;;;;;;;;;;;;;18.28;49.48;99350.88;10411021;28;779;-70
2024/04/05 22:13:51;;;;;;;;;;;;;;;18.28;49.63;99356.16;10409843;28;1952;-71
2024/04/05 22:18:48;;;;;;;;;;;;;;;18.26;49.49;99363.28;10410533;28;968;-71
2024/04/05 22:23:44;;;;;;;;;;;;;;;18.26;49.44;99365.91;10410438;28;996;-71
2024/04/05 22:28:39;;;;;;;;;;;;;;;18.23;49.45;99368.72;10410224;28;1313;-71
2024/04/05 22:33:35;;;;;;;;;;;;;;;18.23;49.53;99368.72;10409966;28;1905;-71
2024/04/05 22:38:31;;;;;;;;;;;;;;;18.21;49.45;99362.66;10410627;27;862;-71
2024/04/05 22:43:27;;;;;;;;;;;;;;;18.19;49.42;99365.41;10410247;28;880;-71
2024/04/05 22:48:24;;;;;;;;;;;;;;;18.20;49.55;99358.31;10410894;28;866;-71
2024/04/05 22:53:20;;;;;;;;;;;;;;;18.18;49.47;99376.84;10409862;28;1905;-71
2024/04/05 22:58:15;;;;;;;;;;;;;;;18.16;49.64;99366.41;10409717;28;869;-71
2024/04/05 23:03:11;;;;;;;;;;;;;;;18.15;49.36;99374.38;10409639;28;886;-71
2024/04/05 23:08:07;;;;;;;;;;;;;;;18.14;49.58;99378.81;10408686;28;807;-71
2024/04/05 23:13:04;;;;;;;;;;;;;;;18.14;49.59;99389.34;10408515;28;1913;-71
2024/04/05 23:18:00;;;;;;;;;;;;;;;18.12;49.64;99399.13;10408367;27;1063;-71
2024/04/05 23:22:56;;;;;;;;;;;;;;;18.12;49.61;99407.03;10408355;28;864;-71
2024/04/05 23:27:52;;;;;;;;;;;;;;;18.11;49.84;99405.34;10407792;28;1243;-71
2024/04/05 23:32:48;;;;;;;;;;;;;;;18.11;49.66;99413.25;10408224;28;1973;-71
2024/04/05 23:37:44;;;;;;;;;;;;;;;18.09;49.66;99415.13;10407609;28;802;-70
2024/04/05 23:42:39;;;;;;;;;;;;;;;18.09;49.66;99419.53;10407233;28;917;-71
2024/04/05 23:47:35;;;;;;;;;;;;;;;18.07;49.77;99416.97;10407708;28;968;-71
2024/04/05 23:52:31;;;;;;;;;;;;;;;18.06;49.67;99420.53;10407689;28;1889;-71
2024/04/05 23:57:27;;;;;;;;;;;;;;;18.05;49.63;99416.22;10408124;28;969;-70
